Time;durP1;ratioP1;P1;durP2;ratioP2;P2;SDS_P1;SDS_P2;PMS_P1;PMS_P2;Temp;Humidity;BMP_temperature;BMP_pressure;BME280_temperature;BME280_humidity;BME280_pressure;Samples;Min_cycle;Max_cycle;Signal;HPM_P1;HPM_P2
2022/09/19 00:02:12;;;;;;;2.97;1.90;;;9.70;99.90;;;;;;5075949;28;20490;-76
2022/09/19 00:04:58;;;;;;;2.70;1.83;;;9.50;99.90;;;;;;5073745;28;20401;-76
2022/09/19 00:07:48;;;;;;;2.57;2.33;;;9.50;99.90;;;;;;5079155;28;20792;-77
2022/09/19 00:10:39;;;;;;;7.97;2.23;;;9.50;99.90;;;;;;5061189;28;20454;-76
2022/09/19 00:13:25;;;;;;;4.17;1.93;;;9.50;99.90;;;;;;5072189;28;20442;-76
2022/09/19 00:16:11;;;;;;;2.97;1.90;;;9.40;99.90;;;;;;5075158;28;20524;-76
2022/09/19 00:18:59;;;;;;;2.47;2.03;;;9.40;99.90;;;;;;5071058;28;20448;-77
2022/09/19 00:21:46;;;;;;;2.70;2.03;;;9.30;99.90;;;;;;5082808;28;20502;-77
2022/09/19 00:24:46;;;;;;;2.60;1.83;;;9.20;99.90;;;;;;5077986;28;20422;-77
2022/09/19 00:27:33;;;;;;;2.30;1.73;;;9.10;99.90;;;;;;5071747;28;20424;-77
2022/09/19 00:30:19;;;;;;;2.67;1.80;;;9.00;99.90;;;;;;5066969;28;20454;-77
2022/09/19 00:33:05;;;;;;;9.50;2.07;;;9.00;99.90;;;;;;5075268;28;20454;-77
2022/09/19 00:35:54;;;;;;;3.90;2.20;;;9.00;99.90;;;;;;5068006;28;20429;-77
2022/09/19 00:38:40;;;;;;;2.53;1.87;;;8.90;99.90;;;;;;5068263;28;20463;-77
2022/09/19 00:41:26;;;;;;;3.20;1.10;;;8.80;99.90;;;;;;5075153;28;20442;-76
2022/09/19 00:44:46;;;;;;;2.90;1.33;;;8.80;99.90;;;;;;5070437;28;20570;-77
2022/09/19 00:47:39;;;;;;;1.60;1.00;;;8.90;99.90;;;;;;5045651;28;20497;-77
2022/09/19 00:50:28;;;;;;;1.87;1.10;;;9.00;99.90;;;;;;5065157;28;20427;-75
2022/09/19 00:53:18;;;;;;;2.53;0.80;;;9.10;99.90;;;;;;5071253;28;20552;-77
2022/09/19 00:56:05;;;;;;;12.23;0.90;;;9.20;99.90;;;;;;5078042;28;20934;-76
2022/09/19 00:58:53;;;;;;;2.53;0.90;;;9.30;99.90;;;;;;5062096;28;20448;-77
2022/09/19 01:01:40;;;;;;;2.70;1.07;;;9.30;99.90;;;;;;5074951;28;20433;-76
2022/09/19 01:04:35;;;;;;;2.20;0.93;;;9.40;99.90;;;;;;5071647;28;20443;-77
2022/09/19 01:07:32;;;;;;;1.20;0.70;;;9.50;99.90;;;;;;5073907;28;20430;-76
2022/09/19 01:10:33;;;;;;;2.17;1.10;;;9.60;99.90;;;;;;5066541;28;20953;-75
2022/09/19 01:13:29;;;;;;;2.10;0.90;;;9.60;99.90;;;;;;5070540;28;20590;-76
2022/09/19 01:16:20;;;;;;;5.03;1.00;;;9.50;99.90;;;;;;5072393;28;20877;-76
2022/09/19 01:19:23;;;;;;;4.80;1.57;;;9.50;99.90;;;;;;5066283;28;20418;-77
2022/09/19 01:22:18;;;;;;;8.80;0.90;;;9.60;99.90;;;;;;5068363;28;20424;-77
2022/09/19 01:25:12;;;;;;;2.37;1.00;;;9.70;99.90;;;;;;5072670;28;20444;-77
2022/09/19 01:28:22;;;;;;;3.60;0.77;;;9.70;99.90;;;;;;5067025;28;20455;-76
2022/09/19 01:31:21;;;;;;;6.10;2.20;;;9.80;99.90;;;;;;5074858;28;20870;-77
2022/09/19 01:34:12;;;;;;;1.70;1.00;;;9.80;99.90;;;;;;5071761;28;20441;-76
2022/09/19 01:37:04;;;;;;;4.17;1.23;;;9.70;99.90;;;;;;5080030;28;20532;-76
2022/09/19 01:39:51;;;;;;;2.90;0.80;;;9.70;99.90;;;;;;5067984;28;20816;-76
2022/09/19 01:42:48;;;;;;;3.63;1.10;;;9.60;99.90;;;;;;5074819;28;21147;-76
2022/09/19 01:45:38;;;;;;;4.57;1.20;;;9.60;99.90;;;;;;5072000;28;20447;-76
2022/09/19 01:48:27;;;;;;;10.43;1.10;;;9.60;99.90;;;;;;5065579;28;20577;-76
2022/09/19 01:51:28;;;;;;;2.80;1.20;;;9.60;99.90;;;;;;5076740;28;20422;-77
2022/09/19 01:54:30;;;;;;;3.80;1.30;;;9.60;99.90;;;;;;5074347;28;20969;-77
2022/09/19 01:57:24;;;;;;;8.10;1.23;;;9.60;99.90;;;;;;5071815;28;20419;-76
2022/09/19 02:00:13;;;;;;;2.30;1.03;;;9.80;99.90;;;;;;5075334;28;20791;-77
2022/09/19 02:03:11;;;;;;;5.13;1.60;;;9.80;99.90;;;;;;5073456;28;20471;-77
2022/09/19 02:06:04;;;;;;;3.57;1.90;;;9.80;99.90;;;;;;5069140;28;20469;-76
2022/09/19 02:08:58;;;;;;;4.53;1.10;;;9.90;99.90;;;;;;5062927;28;20815;-77
2022/09/19 02:11:44;;;;;;;2.80;0.93;;;9.90;99.90;;;;;;5070271;28;20424;-77
2022/09/19 02:14:32;;;;;;;2.37;1.23;;;9.80;99.90;;;;;;5072528;28;20505;-77
2022/09/19 02:17:24;;;;;;;2.90;1.20;;;9.90;99.90;;;;;;5068074;28;20496;-76
2022/09/19 02:20:16;;;;;;;3.07;1.60;;;10.10;99.90;;;;;;5069300;28;20423;-77
2022/09/19 02:23:09;;;;;;;1.80;0.90;;;10.20;99.90;;;;;;5075845;28;20601;-77
2022/09/19 02:25:58;;;;;;;3.23;2.03;;;10.20;99.90;;;;;;5080804;28;20460;-77
2022/09/19 02:28:48;;;;;;;5.17;1.60;;;10.30;99.90;;;;;;5072634;28;20445;-77
2022/09/19 02:31:34;;;;;;;4.50;2.17;;;10.40;99.90;;;;;;5083179;28;20527;-77
2022/09/19 02:34:20;;;;;;;3.50;1.43;;;10.40;99.90;;;;;;5070413;28;20509;-76
2022/09/19 02:37:16;;;;;;;4.33;1.37;;;10.40;99.90;;;;;;5070696;28;20662;-75
2022/09/19 02:40:05;;;;;;;3.20;1.30;;;10.20;99.90;;;;;;5073219;28;20434;-76
2022/09/19 02:42:56;;;;;;;2.73;1.40;;;10.20;99.90;;;;;;5071801;28;20521;-76
2022/09/19 02:45:46;;;;;;;5.33;1.67;;;10.10;99.90;;;;;;5077415;28;20735;-77
2022/09/19 02:48:41;;;;;;;3.40;1.10;;;10.20;99.90;;;;;;5072643;28;20586;-77
2022/09/19 02:51:31;;;;;;;3.40;1.40;;;10.30;99.90;;;;;;5074905;28;20490;-77
2022/09/19 02:54:22;;;;;;;5.30;1.47;;;10.30;99.90;;;;;;5075734;28;20415;-77
2022/09/19 02:57:13;;;;;;;9.20;1.47;;;10.20;99.90;;;;;;5068276;28;20429;-77
2022/09/19 03:00:03;;;;;;;3.77;1.73;;;10.20;99.90;;;;;;5072011;28;20397;-77
2022/09/19 03:02:56;;;;;;;6.60;1.47;;;10.30;99.90;;;;;;5068728;28;20462;-76
2022/09/19 03:05:42;;;;;;;6.80;1.47;;;10.40;99.90;;;;;;5074565;28;20405;-76
2022/09/19 03:08:36;;;;;;;4.10;1.80;;;10.40;99.90;;;;;;5073384;28;20442;-76
2022/09/19 03:11:26;;;;;;;5.40;1.30;;;10.50;99.90;;;;;;5072824;28;20450;-77
2022/09/19 03:14:12;;;;;;;3.20;1.30;;;10.50;99.90;;;;;;5075506;28;20418;-76
2022/09/19 03:16:59;;;;;;;5.10;1.30;;;10.60;99.90;;;;;;5067072;28;20422;-77
2022/09/19 03:19:47;;;;;;;2.30;1.40;;;10.50;99.90;;;;;;5074572;28;20998;-77
2022/09/19 03:22:34;;;;;;;3.73;2.00;;;10.60;99.90;;;;;;5077004;28;20495;-77
2022/09/19 03:25:20;;;;;;;3.30;1.27;;;10.60;99.90;;;;;;5079289;28;20385;-77
2022/09/19 03:28:07;;;;;;;5.27;1.63;;;10.60;99.90;;;;;;5078385;28;20523;-76
2022/09/19 03:30:56;;;;;;;8.93;1.90;;;10.50;99.90;;;;;;5078661;28;20806;-76
2022/09/19 03:33:42;;;;;;;6.83;1.97;;;10.50;99.90;;;;;;5074751;28;20422;-77
2022/09/19 03:36:28;;;;;;;6.63;1.63;;;10.40;99.90;;;;;;5074587;28;20596;-77
2022/09/19 03:39:14;;;;;;;4.30;1.50;;;10.50;99.90;;;;;;5072962;28;20452;-77
2022/09/19 03:41:59;;;;;;;13.63;2.00;;;10.40;99.90;;;;;;5080001;28;20421;-76
2022/09/19 03:44:46;;;;;;;3.77;1.53;;;10.40;99.90;;;;;;5077726;28;20470;-77
2022/09/19 03:47:32;;;;;;;3.60;1.60;;;10.50;99.90;;;;;;5069730;28;20560;-77
2022/09/19 03:50:18;;;;;;;6.30;1.77;;;10.50;99.90;;;;;;5079189;28;20435;-77
2022/09/19 03:53:06;;;;;;;7.43;2.13;;;10.40;99.90;;;;;;5077153;28;20442;-76
2022/09/19 03:55:52;;;;;;;6.97;1.70;;;10.50;99.90;;;;;;5075333;28;20445;-75
2022/09/19 03:58:38;;;;;;;5.53;1.97;;;10.40;99.90;;;;;;5080613;28;20422;-77
2022/09/19 04:01:25;;;;;;;5.27;2.20;;;10.50;99.90;;;;;;5078579;28;20459;-76
2022/09/19 04:04:10;;;;;;;7.70;1.53;;;10.50;99.90;;;;;;5080035;28;20957;-76
2022/09/19 04:06:56;;;;;;;8.90;1.97;;;10.50;99.90;;;;;;5072697;28;20571;-77
2022/09/19 04:09:42;;;;;;;5.07;1.70;;;10.50;99.90;;;;;;5076576;28;20427;-77
2022/09/19 04:12:28;;;;;;;5.70;1.87;;;10.50;99.90;;;;;;5078837;28;20455;-77
2022/09/19 04:15:14;;;;;;;3.57;1.57;;;10.50;99.90;;;;;;5074769;28;20515;-76
2022/09/19 04:18:01;;;;;;;6.53;1.80;;;10.50;99.90;;;;;;5066321;28;20446;-77
2022/09/19 04:20:50;;;;;;;4.07;1.97;;;10.50;99.90;;;;;;5074986;28;20426;-77
2022/09/19 04:23:36;;;;;;;13.70;2.43;;;10.50;99.90;;;;;;5078256;28;20405;-75
2022/09/19 04:26:22;;;;;;;5.50;1.90;;;10.50;99.90;;;;;;5069458;28;20428;-76
2022/09/19 04:29:08;;;;;;;10.30;2.37;;;10.50;99.90;;;;;;5068688;28;20489;-76
2022/09/19 04:31:54;;;;;;;6.93;1.97;;;10.50;99.90;;;;;;5075054;28;20779;-76
2022/09/19 04:34:42;;;;;;;4.23;1.60;;;10.30;99.90;;;;;;5071189;28;20393;-76
2022/09/19 04:37:29;;;;;;;8.30;2.80;;;10.30;99.90;;;;;;5072654;28;20424;-77
2022/09/19 04:40:15;;;;;;;9.73;1.70;;;10.30;99.90;;;;;;5073087;28;20898;-76
2022/09/19 04:43:01;;;;;;;9.70;2.67;;;10.30;99.90;;;;;;5070230;28;20438;-75
2022/09/19 04:45:47;;;;;;;9.37;1.90;;;10.30;99.90;;;;;;5070853;28;20793;-77
2022/09/19 04:48:33;;;;;;;5.93;1.87;;;10.20;99.90;;;;;;5071619;28;20430;-77
2022/09/19 04:51:20;;;;;;;6.70;2.20;;;10.30;99.90;;;;;;5075070;28;20429;-77
2022/09/19 04:54:06;;;;;;;7.00;2.57;;;10.20;99.90;;;;;;5075802;28;20476;-77
2022/09/19 04:56:51;;;;;;;6.47;1.90;;;10.10;99.90;;;;;;5063781;28;20466;-76
2022/09/19 04:59:37;;;;;;;9.70;2.20;;;10.00;99.90;;;;;;5071566;28;20837;-77
2022/09/19 05:02:23;;;;;;;5.77;1.83;;;9.90;99.90;;;;;;5074103;28;20478;-77
2022/09/19 05:05:09;;;;;;;8.03;2.23;;;10.00;99.90;;;;;;5071715;28;20397;-76
2022/09/19 05:07:56;;;;;;;4.10;1.87;;;9.90;99.90;;;;;;5082182;28;20806;-77
2022/09/19 05:10:41;;;;;;;7.93;2.07;;;9.90;99.90;;;;;;5073311;28;20423;-77
2022/09/19 05:13:30;;;;;;;6.67;2.00;;;9.70;99.90;;;;;;5078165;28;20422;-77
2022/09/19 05:16:16;;;;;;;5.00;1.80;;;9.70;99.90;;;;;;5079327;28;20452;-77
2022/09/19 05:19:02;;;;;;;12.67;2.33;;;9.80;99.90;;;;;;5087550;28;20939;-76
2022/09/19 05:21:48;;;;;;;3.60;2.20;;;9.70;99.90;;;;;;5085942;28;20469;-77
2022/09/19 05:24:37;;;;;;;5.20;2.13;;;9.70;99.90;;;;;;5091699;28;20437;-77
2022/09/19 05:27:22;;;;;;;4.30;2.33;;;9.70;99.90;;;;;;5075294;28;20484;-77
2022/09/19 05:30:10;;;;;;;4.93;1.93;;;9.70;99.90;;;;;;5083297;28;20438;-77
2022/09/19 05:32:55;;;;;;;8.57;2.43;;;9.60;99.90;;;;;;5076555;28;20478;-77
2022/09/19 05:35:41;;;;;;;9.13;1.57;;;9.60;99.90;;;;;;5059145;28;20444;-76
2022/09/19 05:38:27;;;;;;;5.50;2.50;;;9.60;99.90;;;;;;5072726;28;20531;-77
2022/09/19 05:41:14;;;;;;;14.83;2.50;;;9.60;99.90;;;;;;5077147;28;20470;-77
2022/09/19 05:43:59;;;;;;;5.70;2.50;;;9.50;99.90;;;;;;5076688;28;20556;-77
2022/09/19 05:46:45;;;;;;;10.17;2.50;;;9.70;99.90;;;;;;5066184;28;20492;-77
2022/09/19 05:49:32;;;;;;;12.03;2.57;;;9.70;99.90;;;;;;5068110;28;20427;-76
2022/09/19 05:55:20;;;;;;;5.43;2.10;;;9.80;99.90;;;;;;5076814;28;20511;-76
2022/09/19 05:58:09;;;;;;;9.10;2.00;;;9.90;99.90;;;;;;5083042;28;20423;-76
2022/09/19 06:00:55;;;;;;;10.03;2.40;;;10.00;99.90;;;;;;5088351;28;20408;-77
2022/09/19 06:03:42;;;;;;;4.70;1.77;;;10.00;99.90;;;;;;5077958;28;20800;-77
2022/09/19 06:06:28;;;;;;;8.50;2.10;;;10.00;99.90;;;;;;5075452;28;20437;-76
2022/09/19 06:09:13;;;;;;;11.13;2.80;;;10.00;99.90;;;;;;5089726;28;21036;-77
2022/09/19 06:11:59;;;;;;;10.23;1.97;;;10.10;99.90;;;;;;5069073;28;20466;-76
2022/09/19 06:14:46;;;;;;;19.67;2.30;;;10.20;99.90;;;;;;5067247;28;20429;-75
2022/09/19 06:17:32;;;;;;;10.27;2.93;;;10.30;99.90;;;;;;5077513;28;20427;-76
2022/09/19 06:20:17;;;;;;;8.90;2.70;;;10.20;99.90;;;;;;5071007;28;20440;-77
2022/09/19 06:23:06;;;;;;;9.47;2.80;;;10.20;99.90;;;;;;5078573;28;20450;-76
2022/09/19 06:25:51;;;;;;;13.63;3.07;;;10.20;99.90;;;;;;5072515;28;20442;-77
2022/09/19 06:28:37;;;;;;;8.33;2.57;;;10.00;99.90;;;;;;5078704;28;20430;-76
2022/09/19 06:31:24;;;;;;;6.80;2.40;;;9.90;99.90;;;;;;5080692;28;20437;-76
2022/09/19 06:34:12;;;;;;;9.47;2.30;;;10.00;99.90;;;;;;5082198;28;20466;-77
2022/09/19 06:36:57;;;;;;;7.77;2.67;;;10.10;99.90;;;;;;5086243;28;20977;-76
2022/09/19 06:39:43;;;;;;;10.10;2.97;;;10.10;99.90;;;;;;5082236;28;20400;-77
2022/09/19 06:42:29;;;;;;;19.93;3.23;;;10.20;99.90;;;;;;5084008;28;20449;-76
2022/09/19 06:45:15;;;;;;;12.70;2.47;;;10.20;99.90;;;;;;5078010;28;20441;-77
2022/09/19 06:48:02;;;;;;;7.20;1.83;;;10.40;99.90;;;;;;5085948;28;20429;-77
2022/09/19 06:50:49;;;;;;;7.47;1.80;;;10.50;99.90;;;;;;5079253;28;20451;-77
2022/09/19 06:53:35;;;;;;;9.93;2.20;;;10.60;99.90;;;;;;5076538;28;20781;-77
2022/09/19 06:56:21;;;;;;;8.80;2.53;;;10.70;99.90;;;;;;5080148;28;20458;-77
2022/09/19 06:59:07;;;;;;;9.73;1.93;;;10.70;99.90;;;;;;5079572;28;20434;-76
2022/09/19 07:01:53;;;;;;;6.13;2.40;;;10.80;99.90;;;;;;5073342;28;20508;-77
2022/09/19 07:04:40;;;;;;;11.93;2.23;;;10.90;99.90;;;;;;5069522;28;20963;-76
2022/09/19 07:07:26;;;;;;;9.50;3.00;;;10.90;99.90;;;;;;5076461;28;20454;-77
2022/09/19 07:10:11;;;;;;;9.30;2.20;;;10.90;99.90;;;;;;5089247;28;20431;-77
2022/09/19 07:12:59;;;;;;;12.53;3.13;;;11.00;99.90;;;;;;5094668;28;20436;-77
2022/09/19 07:15:45;;;;;;;4.67;1.83;;;10.90;99.90;;;;;;5077393;28;20459;-77
2022/09/19 07:18:32;;;;;;;9.70;2.90;;;10.80;99.90;;;;;;5087344;28;20560;-77
2022/09/19 07:21:19;;;;;;;16.93;3.13;;;10.90;99.90;;;;;;5092656;28;20784;-77
2022/09/19 07:24:06;;;;;;;7.57;3.33;;;10.80;99.90;;;;;;5078996;28;20421;-77
2022/09/19 07:26:51;;;;;;;25.23;3.50;;;10.80;99.90;;;;;;5074155;28;20462;-77
2022/09/19 07:29:37;;;;;;;10.00;3.50;;;10.70;99.90;;;;;;5074800;28;20427;-77
2022/09/19 07:32:23;;;;;;;10.90;2.90;;;10.70;99.90;;;;;;5076477;28;20494;-76
2022/09/19 07:35:09;;;;;;;8.83;3.40;;;10.70;99.90;;;;;;5074649;28;20454;-76
2022/09/19 07:37:56;;;;;;;13.80;3.10;;;10.70;99.90;;;;;;5076814;28;20419;-76
2022/09/19 07:40:42;;;;;;;13.03;3.30;;;10.70;99.90;;;;;;5078611;28;20534;-76
2022/09/19 07:43:28;;;;;;;16.57;2.77;;;10.80;99.90;;;;;;5065794;28;20568;-77
2022/09/19 07:46:15;;;;;;;9.53;2.93;;;10.90;99.90;;;;;;5073274;28;20406;-77
2022/09/19 07:49:00;;;;;;;14.00;3.30;;;10.90;99.90;;;;;;5078091;28;20606;-76
2022/09/19 07:51:46;;;;;;;11.63;3.13;;;11.00;99.90;;;;;;5074050;28;20469;-77
2022/09/19 07:54:33;;;;;;;15.60;4.00;;;11.00;99.90;;;;;;5064868;28;20450;-77
2022/09/19 07:57:19;;;;;;;9.10;2.70;;;11.10;99.90;;;;;;5072356;28;20470;-76
2022/09/19 08:00:07;;;;;;;15.00;3.00;;;11.30;99.90;;;;;;5074411;28;20990;-76
2022/09/19 08:02:57;;;;;;;10.23;3.10;;;11.50;99.90;;;;;;5074337;28;20556;-77
2022/09/19 08:05:45;;;;;;;11.10;2.77;;;11.40;99.90;;;;;;5074107;28;20501;-77
2022/09/19 08:08:30;;;;;;;10.23;2.77;;;11.40;99.90;;;;;;5080021;28;20423;-78
2022/09/19 08:11:19;;;;;;;12.50;3.80;;;11.50;99.90;;;;;;5078121;28;20501;-78
2022/09/19 08:14:06;;;;;;;8.77;2.80;;;11.40;99.90;;;;;;5069311;28;20455;-78
2022/09/19 08:16:52;;;;;;;11.87;3.20;;;11.50;99.90;;;;;;5078080;28;20512;-77
2022/09/19 08:19:38;;;;;;;7.23;3.60;;;11.50;99.90;;;;;;5075923;28;20426;-77
2022/09/19 08:22:25;;;;;;;11.07;3.33;;;11.70;99.90;;;;;;5076978;28;20419;-77
2022/09/19 08:25:11;;;;;;;6.57;3.27;;;11.80;99.90;;;;;;5074993;28;20438;-77
2022/09/19 08:27:58;;;;;;;11.70;3.57;;;11.70;99.90;;;;;;5073774;28;20425;-77
2022/09/19 08:30:45;;;;;;;7.80;2.73;;;11.70;99.90;;;;;;5076083;28;20450;-77
2022/09/19 08:33:31;;;;;;;7.27;3.30;;;11.80;99.90;;;;;;5068169;28;20956;-77
2022/09/19 08:36:16;;;;;;;10.00;3.00;;;11.90;99.90;;;;;;5076675;28;20575;-78
2022/09/19 08:39:02;;;;;;;11.97;4.10;;;11.90;99.90;;;;;;5078026;28;20459;-78
2022/09/19 08:42:03;;;;;;;9.13;3.67;;;11.90;99.90;;;;;;5073237;28;20424;-78
2022/09/19 08:45:00;;;;;;;16.43;4.53;;;12.00;99.90;;;;;;5075935;28;20505;-77
2022/09/19 08:47:47;;;;;;;14.77;3.20;;;12.20;99.90;;;;;;5072012;28;20422;-78
2022/09/19 08:50:37;;;;;;;14.73;3.77;;;12.30;99.90;;;;;;5080807;28;20832;-77
2022/09/19 08:53:28;;;;;;;6.17;3.20;;;12.50;99.90;;;;;;5075818;28;20499;-77
2022/09/19 08:56:16;;;;;;;12.27;4.30;;;12.60;99.90;;;;;;5074501;28;20583;-77
2022/09/19 08:59:04;;;;;;;15.87;3.57;;;12.70;99.90;;;;;;5073809;28;20401;-77
2022/09/19 09:01:56;;;;;;;21.30;2.70;;;12.70;99.90;;;;;;5073645;28;20536;-77
2022/09/19 09:04:42;;;;;;;10.50;3.13;;;12.60;99.90;;;;;;5071640;28;20409;-78
2022/09/19 09:07:38;;;;;;;10.60;3.10;;;12.70;99.90;;;;;;5076751;28;20430;-78
2022/09/19 09:10:40;;;;;;;7.80;2.73;;;12.70;99.90;;;;;;5078156;28;20397;-78
2022/09/19 09:13:37;;;;;;;12.47;2.90;;;12.60;99.90;;;;;;5065833;28;20420;-77
2022/09/19 09:16:34;;;;;;;12.43;2.67;;;12.50;99.90;;;;;;5070920;28;20452;-78
2022/09/19 09:19:47;;;;;;;6.27;2.70;;;12.40;99.90;;;;;;5072578;28;20513;-78
2022/09/19 09:22:38;;;;;;;10.90;2.60;;;12.40;99.90;;;;;;5063733;28;20486;-77
2022/09/19 09:25:30;;;;;;;5.97;2.70;;;12.40;99.90;;;;;;5078520;28;20401;-78
2022/09/19 09:28:25;;;;;;;7.47;2.73;;;12.30;99.90;;;;;;5072197;28;20493;-77
2022/09/19 09:31:21;;;;;;;6.07;2.40;;;12.40;99.90;;;;;;5072056;28;20541;-78
2022/09/19 09:34:16;;;;;;;6.67;2.40;;;12.50;99.90;;;;;;5064184;28;20821;-77
2022/09/19 09:37:07;;;;;;;8.20;2.50;;;12.60;99.90;;;;;;5068519;28;20527;-76
2022/09/19 09:40:00;;;;;;;6.97;2.93;;;12.50;99.90;;;;;;5075149;28;20952;-76
2022/09/19 09:42:51;;;;;;;9.70;2.80;;;12.40;99.90;;;;;;5071374;28;20473;-78
2022/09/19 09:45:44;;;;;;;11.00;3.07;;;12.60;99.90;;;;;;5073867;28;20438;-77
2022/09/19 09:48:33;;;;;;;11.47;3.43;;;12.70;99.90;;;;;;5067378;28;20932;-77
2022/09/19 09:51:32;;;;;;;12.63;2.83;;;12.60;99.90;;;;;;5079583;28;20447;-77
2022/09/19 09:57:45;;;;;;;12.00;2.97;;;12.80;99.90;;;;;;5070629;28;20484;-75
2022/09/19 10:03:45;;;;;;;10.90;2.60;;;12.80;99.90;;;;;;5058453;28;20446;-77
2022/09/19 10:06:35;;;;;;;9.53;2.67;;;12.80;99.90;;;;;;5074489;28;20490;-78
2022/09/19 10:09:28;;;;;;;8.47;2.70;;;12.90;99.90;;;;;;5068380;28;20409;-76
2022/09/19 10:12:23;;;;;;;8.60;2.43;;;12.80;99.90;;;;;;5067685;28;20461;-77
2022/09/19 10:15:17;;;;;;;14.53;3.30;;;12.90;99.90;;;;;;5068570;28;20500;-77
2022/09/19 10:18:09;;;;;;;8.20;2.23;;;12.90;99.90;;;;;;5065499;28;20466;-77
2022/09/19 10:20:56;;;;;;;8.33;2.80;;;12.90;99.90;;;;;;5061394;28;20977;-78
2022/09/19 10:23:45;;;;;;;8.70;2.97;;;12.80;99.90;;;;;;5061158;28;20458;-78
2022/09/19 10:26:32;;;;;;;6.87;2.70;;;12.90;99.90;;;;;;5065473;28;20414;-78
2022/09/19 10:29:22;;;;;;;7.97;2.50;;;13.10;99.90;;;;;;5061938;28;21046;-77
2022/09/19 10:32:08;;;;;;;7.10;2.57;;;13.30;99.90;;;;;;5068786;28;20581;-76
2022/09/19 10:34:54;;;;;;;8.70;2.97;;;13.40;99.90;;;;;;5069208;28;20568;-77
2022/09/19 10:37:40;;;;;;;7.77;2.80;;;13.40;99.90;;;;;;5070336;28;20632;-77
2022/09/19 10:40:27;;;;;;;6.17;2.50;;;13.50;99.90;;;;;;5069658;28;20525;-76
2022/09/19 10:43:22;;;;;;;9.73;2.83;;;13.50;99.90;;;;;;5065333;28;20474;-76
2022/09/19 10:46:16;;;;;;;7.37;3.27;;;13.60;99.90;;;;;;5071051;28;20442;-76
2022/09/19 10:49:03;;;;;;;16.20;2.70;;;13.70;99.90;;;;;;5066014;28;20796;-76
2022/09/19 10:51:50;;;;;;;9.80;2.57;;;13.90;99.90;;;;;;5068267;28;20810;-76
2022/09/19 10:54:40;;;;;;;9.20;2.83;;;13.80;99.90;;;;;;5062372;28;20429;-76
2022/09/19 10:57:37;;;;;;;6.23;2.37;;;13.80;99.90;;;;;;5066262;28;20471;-76
2022/09/19 11:00:27;;;;;;;7.93;2.10;;;13.90;99.90;;;;;;5063533;28;20843;-76
2022/09/19 11:03:20;;;;;;;7.40;2.40;;;13.80;99.90;;;;;;5065316;28;20513;-77
2022/09/19 11:06:10;;;;;;;10.23;2.30;;;13.90;99.90;;;;;;5068647;28;20421;-76
2022/09/19 11:08:57;;;;;;;7.47;2.50;;;14.00;99.90;;;;;;5065978;28;20434;-76
2022/09/19 11:11:47;;;;;;;10.40;2.47;;;14.10;99.90;;;;;;5066398;28;21153;-76
2022/09/19 11:14:36;;;;;;;9.27;2.90;;;14.10;99.90;;;;;;5075620;28;20531;-76
2022/09/19 11:17:55;;;;;;;7.57;2.73;;;14.10;99.90;;;;;;5070449;28;20506;-76
2022/09/19 11:20:50;;;;;;;8.70;2.43;;;14.10;99.90;;;;;;5067567;28;20417;-77
2022/09/19 11:23:57;;;;;;;5.63;1.83;;;14.10;99.90;;;;;;5071806;28;20845;-76
2022/09/19 11:27:00;;;;;;;7.57;3.50;;;14.20;99.90;;;;;;5069266;28;20517;-78
2022/09/19 11:29:58;;;;;;;8.00;2.33;;;14.30;99.90;;;;;;5069146;28;20500;-77
2022/09/19 11:33:09;;;;;;;13.43;2.20;;;14.50;99.90;;;;;;5067754;28;20436;-77
2022/09/19 11:36:04;;;;;;;8.00;2.27;;;14.60;99.90;;;;;;5068484;28;20492;-77
2022/09/19 11:38:56;;;;;;;15.00;2.43;;;14.70;99.90;;;;;;5071290;28;20999;-77
2022/09/19 11:41:54;;;;;;;10.97;2.43;;;14.80;99.90;;;;;;5070216;28;20434;-76
2022/09/19 11:44:54;;;;;;;8.00;1.93;;;14.90;99.90;;;;;;5072510;28;20549;-77
2022/09/19 11:48:10;;;;;;;8.23;1.83;;;15.00;99.90;;;;;;5071370;28;20532;-76
2022/09/19 11:51:11;;;;;;;5.47;1.73;;;15.00;99.90;;;;;;5067101;28;20525;-77
2022/09/19 11:54:18;;;;;;;6.33;1.80;;;15.10;99.90;;;;;;5076853;28;20424;-77
2022/09/19 11:57:21;;;;;;;5.33;1.73;;;15.40;99.90;;;;;;5072146;28;20460;-77
2022/09/19 12:00:15;;;;;;;7.87;1.80;;;15.80;99.90;;;;;;5069414;28;20429;-76
2022/09/19 12:03:32;;;;;;;6.13;1.50;;;16.00;99.90;;;;;;5072612;22;20841;-77
2022/09/19 12:06:32;;;;;;;8.53;1.97;;;16.00;99.90;;;;;;5043949;28;20443;-77
2022/09/19 12:09:25;;;;;;;4.63;1.67;;;16.20;99.90;;;;;;5046781;28;20509;-77
2022/09/19 12:12:14;;;;;;;6.10;1.60;;;16.20;99.90;;;;;;5046982;28;20968;-77
2022/09/19 12:15:18;;;;;;;6.33;1.90;;;16.30;99.90;;;;;;5049325;28;20520;-77
2022/09/19 12:18:12;;;;;;;7.23;1.50;;;16.30;99.90;;;;;;5045151;28;20438;-76
2022/09/19 12:21:00;;;;;;;7.63;2.20;;;16.30;99.90;;;;;;5047326;28;20496;-78
2022/09/19 12:26:56;;;;;;;7.80;1.83;;;15.90;99.90;;;;;;5049747;28;20498;-77
2022/09/19 12:29:48;;;;;;;8.93;2.37;;;15.70;99.90;;;;;;5045951;28;20492;-78
2022/09/19 12:32:42;;;;;;;5.40;1.97;;;15.70;99.90;;;;;;5047168;28;20471;-77
2022/09/19 12:35:35;;;;;;;6.03;1.90;;;15.80;99.90;;;;;;5047293;28;20490;-77
2022/09/19 12:38:26;;;;;;;5.20;1.57;;;16.00;99.90;;;;;;5054771;28;20557;-77
2022/09/19 12:41:17;;;;;;;7.70;1.77;;;16.20;99.90;;;;;;5051695;28;20422;-77
2022/09/19 12:44:12;;;;;;;6.00;1.80;;;16.30;99.90;;;;;;5053052;28;20490;-77
2022/09/19 12:47:04;;;;;;;7.20;1.90;;;16.40;99.90;;;;;;5053977;28;20940;-77
2022/09/19 12:49:59;;;;;;;16.10;2.10;;;16.40;99.90;;;;;;5044141;28;20425;-78
2022/09/19 12:52:58;;;;;;;8.27;1.90;;;16.30;99.90;;;;;;5054506;28;20582;-77
2022/09/19 12:55:56;;;;;;;4.80;1.60;;;16.20;99.90;;;;;;5054156;28;20938;-77
2022/09/19 12:58:53;;;;;;;5.30;2.30;;;16.10;99.90;;;;;;5048449;28;20515;-78
2022/09/19 13:01:41;;;;;;;5.20;1.10;;;16.30;99.90;;;;;;5044089;28;20598;-77
2022/09/19 13:04:35;;;;;;;4.37;1.10;;;16.40;99.90;;;;;;5047675;28;20426;-78
2022/09/19 13:07:30;;;;;;;8.23;1.30;;;16.30;99.90;;;;;;5046534;28;20439;-77
2022/09/19 13:10:23;;;;;;;6.93;1.70;;;16.00;99.90;;;;;;5045997;28;20447;-77
2022/09/19 13:13:18;;;;;;;3.73;1.13;;;15.80;99.90;;;;;;5054929;28;20442;-75
2022/09/19 13:16:08;;;;;;;8.13;1.10;;;15.60;99.90;;;;;;5047023;28;20456;-77
2022/09/19 13:25:15;;;;;;;9.27;1.30;;;15.80;99.90;;;;;;5046850;28;20440;-77
2022/09/19 13:28:32;;;;;;;4.00;0.90;;;15.60;99.90;;;;;;5040244;28;20488;-77
2022/09/19 13:31:19;;;;;;;3.13;0.83;;;15.60;99.90;;;;;;5041854;28;20806;-76
2022/09/19 13:34:39;;;;;;;7.10;1.10;;;15.80;99.90;;;;;;5043189;28;20443;-77
2022/09/19 13:37:51;;;;;;;11.37;1.27;;;15.80;99.90;;;;;;5043001;28;20442;-76
2022/09/19 13:40:46;;;;;;;5.43;1.30;;;16.10;99.90;;;;;;5047162;28;20455;-77
2022/09/19 13:43:45;;;;;;;9.60;1.20;;;16.60;99.90;;;;;;5047002;28;20816;-76
2022/09/19 13:46:38;;;;;;;5.70;1.37;;;17.00;99.90;;;;;;5047759;28;20478;-76
2022/09/19 13:49:33;;;;;;;3.30;1.10;;;17.50;99.90;;;;;;5052055;28;20483;-76
2022/09/19 13:52:26;;;;;;;2.83;1.20;;;17.60;99.10;;;;;;5046617;28;20463;-77
2022/09/19 13:55:32;;;;;;;4.60;1.20;;;17.80;98.10;;;;;;5051523;28;20469;-76
2022/09/19 13:58:27;;;;;;;4.30;1.53;;;17.80;93.60;;;;;;5062845;28;20493;-76
2022/09/19 14:01:22;;;;;;;3.93;0.97;;;17.80;94.80;;;;;;5042012;28;20443;-75
2022/09/19 14:07:30;;;;;;;9.70;1.50;;;17.90;96.50;;;;;;5044355;28;20472;-76
2022/09/19 14:10:23;;;;;;;9.97;1.80;;;18.00;96.10;;;;;;5042052;28;20447;-77
2022/09/19 14:13:37;;;;;;;6.00;1.00;;;18.10;96.70;;;;;;5059390;28;20928;-77
2022/09/19 14:16:33;;;;;;;8.70;1.20;;;18.20;94.50;;;;;;5007716;28;20431;-77
2022/09/19 14:19:44;;;;;;;4.77;1.23;;;18.20;92.90;;;;;;5045954;28;20465;-75
2022/09/19 14:22:44;;;;;;;4.03;0.70;;;18.40;84.90;;;;;;5052719;28;20803;-77
2022/09/19 14:25:30;;;;;;;3.83;0.97;;;18.70;82.80;;;;;;5043456;28;20459;-76
2022/09/19 14:28:38;;;;;;;1.50;0.60;;;18.70;79.80;;;;;;5054591;28;20788;-76
2022/09/19 14:31:37;;;;;;;3.73;1.23;;;18.50;64.90;;;;;;5045148;28;20968;-76
2022/09/19 14:34:52;;;;;;;7.60;1.13;;;17.80;65.80;;;;;;5050223;28;20421;-76
2022/09/19 14:38:19;;;;;;;2.23;0.70;;;17.10;73.20;;;;;;5049263;28;20478;-75
2022/09/19 14:41:11;;;;;;;4.13;0.80;;;16.50;81.10;;;;;;5057529;28;20919;-76
2022/09/19 14:44:43;;;;;;;5.90;1.10;;;16.30;86.70;;;;;;5052644;28;20541;-76
2022/09/19 14:47:36;;;;;;;6.70;2.30;;;16.20;86.10;;;;;;5046978;28;20415;-76
2022/09/19 14:50:23;;;;;;;3.40;1.43;;;16.20;86.70;;;;;;5051856;28;20422;-75
2022/09/19 14:53:18;;;;;;;2.77;0.80;;;16.10;79.80;;;;;;5047678;28;20917;-76
2022/09/19 14:56:12;;;;;;;4.20;0.83;;;16.30;78.40;;;;;;5050735;28;20469;-81
2022/09/19 14:58:59;;;;;;;3.83;0.93;;;16.60;78.70;;;;;;5048449;28;20806;-76
2022/09/19 15:01:45;;;;;;;3.80;1.00;;;17.00;81.50;;;;;;5051057;28;20903;-78
2022/09/19 15:04:32;;;;;;;2.43;1.10;;;17.10;70.70;;;;;;5053962;28;20405;-76
2022/09/19 15:07:19;;;;;;;3.40;0.90;;;17.00;69.60;;;;;;5053988;28;20405;-75
2022/09/19 15:10:30;;;;;;;5.10;1.20;;;16.90;73.30;;;;;;5052607;28;20446;-78
2022/09/19 15:13:21;;;;;;;3.50;0.80;;;16.70;75.40;;;;;;5050816;28;20440;-76
2022/09/19 15:16:09;;;;;;;9.37;1.60;;;16.40;76.20;;;;;;5049990;28;20529;-77